sensor_id;sensor_type;location;lat;lon;timestamp;P1;durP1;ratioP1;P2;durP2;ratioP2
33858;SDS011;20156;47.486;12.074;2023-07-09T00:02:19;8.90;;;6.18;;
33858;SDS011;20156;47.486;12.074;2023-07-09T00:04:45;8.68;;;5.85;;
33858;SDS011;20156;47.486;12.074;2023-07-09T00:07:18;8.30;;;6.32;;
33858;SDS011;20156;47.486;12.074;2023-07-09T00:09:44;8.73;;;6.05;;
33858;SDS011;20156;47.486;12.074;2023-07-09T00:12:14;7.72;;;5.70;;
33858;SDS011;20156;47.486;12.074;2023-07-09T00:14:41;6.88;;;5.63;;
33858;SDS011;20156;47.486;12.074;2023-07-09T00:17:08;8.07;;;6.82;;
33858;SDS011;20156;47.486;12.074;2023-07-09T00:19:36;8.10;;;6.88;;
33858;SDS011;20156;47.486;12.074;2023-07-09T00:22:01;7.60;;;6.10;;
33858;SDS011;20156;47.486;12.074;2023-07-09T00:24:27;8.02;;;6.10;;
33858;SDS011;20156;47.486;12.074;2023-07-09T00:26:52;8.25;;;6.63;;
33858;SDS011;20156;47.486;12.074;2023-07-09T00:29:18;10.05;;;6.47;;
33858;SDS011;20156;47.486;12.074;2023-07-09T00:31:43;8.05;;;6.28;;
33858;SDS011;20156;47.486;12.074;2023-07-09T00:34:10;7.53;;;5.82;;
33858;SDS011;20156;47.486;12.074;2023-07-09T00:36:39;8.30;;;6.50;;
33858;SDS011;20156;47.486;12.074;2023-07-09T00:39:21;12.55;;;5.45;;
33858;SDS011;20156;47.486;12.074;2023-07-09T00:41:48;8.68;;;6.03;;
33858;SDS011;20156;47.486;12.074;2023-07-09T00:49:14;6.40;;;5.40;;
33858;SDS011;20156;47.486;12.074;2023-07-09T00:51:51;5.60;;;5.10;;
33858;SDS011;20156;47.486;12.074;2023-07-09T00:56:45;6.50;;;5.38;;
33858;SDS011;20156;47.486;12.074;2023-07-09T00:59:17;8.93;;;5.80;;
33858;SDS011;20156;47.486;12.074;2023-07-09T01:01:45;5.97;;;5.38;;
33858;SDS011;20156;47.486;12.074;2023-07-09T01:04:15;11.38;;;5.63;;
33858;SDS011;20156;47.486;12.074;2023-07-09T01:06:50;9.00;;;6.28;;
33858;SDS011;20156;47.486;12.074;2023-07-09T01:09:18;9.20;;;6.32;;
33858;SDS011;20156;47.486;12.074;2023-07-09T01:11:44;7.05;;;5.43;;
33858;SDS011;20156;47.486;12.074;2023-07-09T01:14:10;9.13;;;6.20;;
33858;SDS011;20156;47.486;12.074;2023-07-09T01:16:39;8.98;;;6.72;;
33858;SDS011;20156;47.486;12.074;2023-07-09T01:19:10;7.60;;;6.80;;
33858;SDS011;20156;47.486;12.074;2023-07-09T01:21:38;8.93;;;6.05;;
33858;SDS011;20156;47.486;12.074;2023-07-09T01:24:11;8.65;;;6.63;;
33858;SDS011;20156;47.486;12.074;2023-07-09T01:26:39;7.90;;;5.47;;
33858;SDS011;20156;47.486;12.074;2023-07-09T01:29:05;8.60;;;6.43;;
33858;SDS011;20156;47.486;12.074;2023-07-09T01:31:31;7.82;;;6.28;;
33858;SDS011;20156;47.486;12.074;2023-07-09T01:33:57;8.00;;;6.32;;
33858;SDS011;20156;47.486;12.074;2023-07-09T01:36:23;8.70;;;5.97;;
33858;SDS011;20156;47.486;12.074;2023-07-09T01:38:49;10.38;;;6.57;;
33858;SDS011;20156;47.486;12.074;2023-07-09T01:41:21;9.98;;;6.20;;
33858;SDS011;20156;47.486;12.074;2023-07-09T01:43:47;8.70;;;6.28;;
33858;SDS011;20156;47.486;12.074;2023-07-09T01:46:12;9.20;;;6.53;;
33858;SDS011;20156;47.486;12.074;2023-07-09T01:48:39;9.50;;;6.30;;
33858;SDS011;20156;47.486;12.074;2023-07-09T01:51:07;8.63;;;6.32;;
33858;SDS011;20156;47.486;12.074;2023-07-09T01:53:34;8.48;;;6.40;;
33858;SDS011;20156;47.486;12.074;2023-07-09T01:56:03;8.13;;;5.75;;
33858;SDS011;20156;47.486;12.074;2023-07-09T01:58:28;9.55;;;5.85;;
33858;SDS011;20156;47.486;12.074;2023-07-09T02:00:56;8.63;;;6.75;;
33858;SDS011;20156;47.486;12.074;2023-07-09T02:03:22;8.15;;;6.07;;
33858;SDS011;20156;47.486;12.074;2023-07-09T02:05:50;9.32;;;6.78;;
33858;SDS011;20156;47.486;12.074;2023-07-09T02:08:18;8.98;;;6.13;;
33858;SDS011;20156;47.486;12.074;2023-07-09T02:10:44;8.52;;;6.80;;
33858;SDS011;20156;47.486;12.074;2023-07-09T02:13:10;8.70;;;6.53;;
33858;SDS011;20156;47.486;12.074;2023-07-09T02:15:36;10.15;;;7.13;;
33858;SDS011;20156;47.486;12.074;2023-07-09T02:18:01;11.20;;;7.28;;
33858;SDS011;20156;47.486;12.074;2023-07-09T02:20:27;8.93;;;6.82;;
33858;SDS011;20156;47.486;12.074;2023-07-09T02:22:53;8.60;;;6.38;;
33858;SDS011;20156;47.486;12.074;2023-07-09T02:25:18;9.38;;;5.75;;
33858;SDS011;20156;47.486;12.074;2023-07-09T02:27:44;6.80;;;5.97;;
33858;SDS011;20156;47.486;12.074;2023-07-09T02:30:09;7.55;;;6.32;;
33858;SDS011;20156;47.486;12.074;2023-07-09T02:32:36;7.40;;;5.55;;
33858;SDS011;20156;47.486;12.074;2023-07-09T02:35:02;8.15;;;6.25;;
33858;SDS011;20156;47.486;12.074;2023-07-09T02:37:27;9.25;;;6.50;;
33858;SDS011;20156;47.486;12.074;2023-07-09T02:39:53;6.70;;;5.63;;
33858;SDS011;20156;47.486;12.074;2023-07-09T02:42:19;8.82;;;5.47;;
33858;SDS011;20156;47.486;12.074;2023-07-09T02:44:46;7.72;;;5.80;;
33858;SDS011;20156;47.486;12.074;2023-07-09T02:47:12;8.02;;;6.00;;
33858;SDS011;20156;47.486;12.074;2023-07-09T02:49:38;11.48;;;6.47;;
33858;SDS011;20156;47.486;12.074;2023-07-09T02:52:05;9.77;;;6.65;;
33858;SDS011;20156;47.486;12.074;2023-07-09T02:54:31;7.50;;;5.38;;
33858;SDS011;20156;47.486;12.074;2023-07-09T02:56:56;8.43;;;5.30;;
33858;SDS011;20156;47.486;12.074;2023-07-09T02:59:22;9.25;;;6.25;;
33858;SDS011;20156;47.486;12.074;2023-07-09T03:01:48;7.95;;;6.68;;
33858;SDS011;20156;47.486;12.074;2023-07-09T03:04:14;8.98;;;6.85;;
33858;SDS011;20156;47.486;12.074;2023-07-09T03:06:40;7.32;;;5.45;;
33858;SDS011;20156;47.486;12.074;2023-07-09T03:09:05;12.02;;;6.30;;
33858;SDS011;20156;47.486;12.074;2023-07-09T03:11:32;7.57;;;5.03;;
33858;SDS011;20156;47.486;12.074;2023-07-09T03:13:58;8.52;;;6.03;;
33858;SDS011;20156;47.486;12.074;2023-07-09T03:16:28;7.57;;;6.47;;
33858;SDS011;20156;47.486;12.074;2023-07-09T03:18:55;8.27;;;6.40;;
33858;SDS011;20156;47.486;12.074;2023-07-09T03:21:21;8.07;;;6.25;;
33858;SDS011;20156;47.486;12.074;2023-07-09T03:23:47;8.88;;;6.50;;
33858;SDS011;20156;47.486;12.074;2023-07-09T03:26:13;6.78;;;5.78;;
33858;SDS011;20156;47.486;12.074;2023-07-09T03:28:38;8.38;;;5.97;;
33858;SDS011;20156;47.486;12.074;2023-07-09T03:31:04;6.28;;;5.68;;
33858;SDS011;20156;47.486;12.074;2023-07-09T03:33:29;11.00;;;6.78;;
33858;SDS011;20156;47.486;12.074;2023-07-09T03:35:54;7.35;;;6.30;;
33858;SDS011;20156;47.486;12.074;2023-07-09T03:38:20;8.13;;;6.35;;
33858;SDS011;20156;47.486;12.074;2023-07-09T03:40:49;8.13;;;5.63;;
33858;SDS011;20156;47.486;12.074;2023-07-09T03:43:15;5.85;;;5.22;;
33858;SDS011;20156;47.486;12.074;2023-07-09T03:45:41;7.00;;;5.63;;
33858;SDS011;20156;47.486;12.074;2023-07-09T03:48:08;8.10;;;5.50;;
33858;SDS011;20156;47.486;12.074;2023-07-09T03:50:34;6.57;;;5.63;;
33858;SDS011;20156;47.486;12.074;2023-07-09T03:52:59;7.72;;;5.70;;
33858;SDS011;20156;47.486;12.074;2023-07-09T03:55:25;7.95;;;5.78;;
33858;SDS011;20156;47.486;12.074;2023-07-09T03:57:52;6.78;;;5.68;;
33858;SDS011;20156;47.486;12.074;2023-07-09T04:00:21;7.70;;;5.60;;
33858;SDS011;20156;47.486;12.074;2023-07-09T04:02:47;7.03;;;5.97;;
33858;SDS011;20156;47.486;12.074;2023-07-09T04:05:12;6.88;;;6.15;;
33858;SDS011;20156;47.486;12.074;2023-07-09T04:07:38;7.72;;;6.18;;
33858;SDS011;20156;47.486;12.074;2023-07-09T04:10:04;7.35;;;5.55;;
33858;SDS011;20156;47.486;12.074;2023-07-09T04:12:30;9.48;;;6.78;;
33858;SDS011;20156;47.486;12.074;2023-07-09T04:14:56;7.32;;;5.57;;
33858;SDS011;20156;47.486;12.074;2023-07-09T04:17:21;5.82;;;5.22;;
33858;SDS011;20156;47.486;12.074;2023-07-09T04:19:48;6.15;;;5.50;;
33858;SDS011;20156;47.486;12.074;2023-07-09T04:22:18;9.93;;;6.20;;
33858;SDS011;20156;47.486;12.074;2023-07-09T04:24:44;6.97;;;5.70;;
33858;SDS011;20156;47.486;12.074;2023-07-09T04:27:10;7.15;;;5.93;;
33858;SDS011;20156;47.486;12.074;2023-07-09T04:29:39;11.63;;;6.45;;
33858;SDS011;20156;47.486;12.074;2023-07-09T04:32:05;8.30;;;5.88;;
33858;SDS011;20156;47.486;12.074;2023-07-09T04:34:32;7.55;;;5.80;;
33858;SDS011;20156;47.486;12.074;2023-07-09T04:36:57;8.07;;;6.20;;
33858;SDS011;20156;47.486;12.074;2023-07-09T04:39:23;8.45;;;5.20;;
33858;SDS011;20156;47.486;12.074;2023-07-09T04:41:48;6.82;;;5.50;;
33858;SDS011;20156;47.486;12.074;2023-07-09T04:44:14;8.18;;;6.40;;
33858;SDS011;20156;47.486;12.074;2023-07-09T04:46:39;6.28;;;4.85;;
33858;SDS011;20156;47.486;12.074;2023-07-09T04:49:06;8.40;;;5.57;;
33858;SDS011;20156;47.486;12.074;2023-07-09T04:51:31;9.68;;;5.72;;
33858;SDS011;20156;47.486;12.074;2023-07-09T04:53:57;10.20;;;5.60;;
33858;SDS011;20156;47.486;12.074;2023-07-09T04:56:23;6.07;;;5.35;;
33858;SDS011;20156;47.486;12.074;2023-07-09T04:58:48;8.63;;;5.80;;
33858;SDS011;20156;47.486;12.074;2023-07-09T05:01:14;6.57;;;5.35;;
33858;SDS011;20156;47.486;12.074;2023-07-09T05:03:39;8.45;;;5.78;;
33858;SDS011;20156;47.486;12.074;2023-07-09T05:06:04;6.43;;;5.72;;
33858;SDS011;20156;47.486;12.074;2023-07-09T05:08:30;7.47;;;5.80;;
33858;SDS011;20156;47.486;12.074;2023-07-09T05:10:56;6.13;;;5.32;;
33858;SDS011;20156;47.486;12.074;2023-07-09T05:13:23;5.90;;;4.90;;
33858;SDS011;20156;47.486;12.074;2023-07-09T05:15:49;5.68;;;5.03;;
33858;SDS011;20156;47.486;12.074;2023-07-09T05:18:15;6.00;;;5.25;;
33858;SDS011;20156;47.486;12.074;2023-07-09T05:20:41;8.45;;;5.63;;
33858;SDS011;20156;47.486;12.074;2023-07-09T05:23:08;7.18;;;5.57;;
33858;SDS011;20156;47.486;12.074;2023-07-09T05:25:34;8.45;;;5.55;;
33858;SDS011;20156;47.486;12.074;2023-07-09T05:28:00;7.28;;;5.53;;
33858;SDS011;20156;47.486;12.074;2023-07-09T05:30:26;8.00;;;5.72;;
33858;SDS011;20156;47.486;12.074;2023-07-09T05:32:51;7.13;;;6.00;;
33858;SDS011;20156;47.486;12.074;2023-07-09T05:35:18;10.10;;;5.60;;
33858;SDS011;20156;47.486;12.074;2023-07-09T05:37:44;7.28;;;5.68;;
33858;SDS011;20156;47.486;12.074;2023-07-09T05:40:09;7.53;;;6.32;;
33858;SDS011;20156;47.486;12.074;2023-07-09T05:42:35;7.35;;;5.75;;
33858;SDS011;20156;47.486;12.074;2023-07-09T05:45:00;9.82;;;6.40;;
33858;SDS011;20156;47.486;12.074;2023-07-09T05:47:26;6.78;;;5.47;;
33858;SDS011;20156;47.486;12.074;2023-07-09T05:49:51;8.68;;;6.35;;
33858;SDS011;20156;47.486;12.074;2023-07-09T05:52:18;7.60;;;5.80;;
33858;SDS011;20156;47.486;12.074;2023-07-09T05:54:45;6.75;;;5.68;;
33858;SDS011;20156;47.486;12.074;2023-07-09T05:57:10;10.18;;;6.28;;
33858;SDS011;20156;47.486;12.074;2023-07-09T05:59:36;8.95;;;6.20;;
33858;SDS011;20156;47.486;12.074;2023-07-09T06:02:01;9.88;;;7.03;;
33858;SDS011;20156;47.486;12.074;2023-07-09T06:04:28;7.72;;;6.93;;
33858;SDS011;20156;47.486;12.074;2023-07-09T06:06:55;10.75;;;5.55;;
33858;SDS011;20156;47.486;12.074;2023-07-09T06:09:21;7.05;;;6.05;;
33858;SDS011;20156;47.486;12.074;2023-07-09T06:11:46;7.78;;;6.53;;
33858;SDS011;20156;47.486;12.074;2023-07-09T06:14:12;7.45;;;6.75;;
33858;SDS011;20156;47.486;12.074;2023-07-09T06:16:37;9.27;;;7.15;;
33858;SDS011;20156;47.486;12.074;2023-07-09T06:19:03;12.75;;;11.38;;
33858;SDS011;20156;47.486;12.074;2023-07-09T06:21:28;6.25;;;5.65;;
33858;SDS011;20156;47.486;12.074;2023-07-09T06:23:54;11.75;;;8.52;;
33858;SDS011;20156;47.486;12.074;2023-07-09T06:26:19;11.63;;;9.30;;
33858;SDS011;20156;47.486;12.074;2023-07-09T06:28:44;18.08;;;15.07;;
33858;SDS011;20156;47.486;12.074;2023-07-09T06:31:10;13.32;;;10.77;;
33858;SDS011;20156;47.486;12.074;2023-07-09T06:33:35;10.93;;;9.63;;
33858;SDS011;20156;47.486;12.074;2023-07-09T06:36:01;9.02;;;6.32;;
33858;SDS011;20156;47.486;12.074;2023-07-09T06:38:27;12.50;;;10.50;;
33858;SDS011;20156;47.486;12.074;2023-07-09T06:40:54;10.50;;;8.32;;
33858;SDS011;20156;47.486;12.074;2023-07-09T06:43:20;8.10;;;6.50;;
33858;SDS011;20156;47.486;12.074;2023-07-09T06:45:53;14.68;;;12.15;;
33858;SDS011;20156;47.486;12.074;2023-07-09T06:48:22;8.45;;;7.53;;
33858;SDS011;20156;47.486;12.074;2023-07-09T06:50:49;13.98;;;11.77;;
33858;SDS011;20156;47.486;12.074;2023-07-09T06:53:15;9.55;;;8.00;;
33858;SDS011;20156;47.486;12.074;2023-07-09T06:55:41;8.07;;;6.80;;
33858;SDS011;20156;47.486;12.074;2023-07-09T06:58:06;7.75;;;6.95;;
33858;SDS011;20156;47.486;12.074;2023-07-09T07:00:33;8.00;;;7.00;;
33858;SDS011;20156;47.486;12.074;2023-07-09T07:03:00;9.70;;;6.70;;
33858;SDS011;20156;47.486;12.074;2023-07-09T07:05:25;13.38;;;11.38;;
33858;SDS011;20156;47.486;12.074;2023-07-09T07:07:51;11.32;;;7.70;;
33858;SDS011;20156;47.486;12.074;2023-07-09T07:10:18;8.65;;;6.60;;
33858;SDS011;20156;47.486;12.074;2023-07-09T07:12:45;11.65;;;7.45;;
33858;SDS011;20156;47.486;12.074;2023-07-09T07:15:13;11.85;;;10.65;;
33858;SDS011;20156;47.486;12.074;2023-07-09T07:17:41;11.63;;;8.63;;
33858;SDS011;20156;47.486;12.074;2023-07-09T07:20:08;8.80;;;7.85;;
33858;SDS011;20156;47.486;12.074;2023-07-09T07:22:35;9.77;;;8.40;;
33858;SDS011;20156;47.486;12.074;2023-07-09T07:25:01;8.27;;;7.00;;
33858;SDS011;20156;47.486;12.074;2023-07-09T07:27:26;9.82;;;6.47;;
33858;SDS011;20156;47.486;12.074;2023-07-09T07:29:52;9.25;;;7.95;;
33858;SDS011;20156;47.486;12.074;2023-07-09T07:32:18;8.73;;;6.60;;
33858;SDS011;20156;47.486;12.074;2023-07-09T07:34:44;8.80;;;6.38;;
33858;SDS011;20156;47.486;12.074;2023-07-09T07:37:09;8.88;;;6.97;;
33858;SDS011;20156;47.486;12.074;2023-07-09T07:39:35;8.82;;;6.60;;
33858;SDS011;20156;47.486;12.074;2023-07-09T07:42:00;8.90;;;6.80;;
33858;SDS011;20156;47.486;12.074;2023-07-09T07:44:26;7.70;;;6.03;;
33858;SDS011;20156;47.486;12.074;2023-07-09T07:46:51;8.75;;;6.78;;
33858;SDS011;20156;47.486;12.074;2023-07-09T07:49:16;8.15;;;5.97;;
33858;SDS011;20156;47.486;12.074;2023-07-09T07:51:42;6.30;;;5.70;;
33858;SDS011;20156;47.486;12.074;2023-07-09T07:54:09;6.30;;;5.57;;
33858;SDS011;20156;47.486;12.074;2023-07-09T07:56:35;6.82;;;5.72;;
33858;SDS011;20156;47.486;12.074;2023-07-09T07:59:01;7.05;;;5.78;;
33858;SDS011;20156;47.486;12.074;2023-07-09T08:01:27;7.63;;;5.95;;
33858;SDS011;20156;47.486;12.074;2023-07-09T08:03:52;7.45;;;5.47;;
33858;SDS011;20156;47.486;12.074;2023-07-09T08:06:18;9.27;;;6.07;;
33858;SDS011;20156;47.486;12.074;2023-07-09T08:08:43;8.63;;;5.97;;
33858;SDS011;20156;47.486;12.074;2023-07-09T08:11:09;8.98;;;5.65;;
33858;SDS011;20156;47.486;12.074;2023-07-09T08:13:34;7.05;;;5.57;;
33858;SDS011;20156;47.486;12.074;2023-07-09T08:16:01;7.75;;;6.13;;
33858;SDS011;20156;47.486;12.074;2023-07-09T08:18:27;8.63;;;5.90;;
33858;SDS011;20156;47.486;12.074;2023-07-09T08:20:52;9.20;;;5.90;;
33858;SDS011;20156;47.486;12.074;2023-07-09T08:23:18;8.10;;;6.00;;
33858;SDS011;20156;47.486;12.074;2023-07-09T08:25:44;6.47;;;5.32;;
33858;SDS011;20156;47.486;12.074;2023-07-09T08:28:09;8.80;;;6.10;;
33858;SDS011;20156;47.486;12.074;2023-07-09T08:30:35;6.10;;;5.50;;
33858;SDS011;20156;47.486;12.074;2023-07-09T08:33:01;7.07;;;5.80;;
33858;SDS011;20156;47.486;12.074;2023-07-09T08:35:26;9.60;;;5.78;;
33858;SDS011;20156;47.486;12.074;2023-07-09T08:37:52;6.40;;;5.38;;
33858;SDS011;20156;47.486;12.074;2023-07-09T08:40:17;7.70;;;6.03;;
33858;SDS011;20156;47.486;12.074;2023-07-09T08:42:44;8.35;;;6.30;;
33858;SDS011;20156;47.486;12.074;2023-07-09T08:45:15;8.15;;;6.32;;
33858;SDS011;20156;47.486;12.074;2023-07-09T08:50:15;6.47;;;5.88;;
33858;SDS011;20156;47.486;12.074;2023-07-09T08:52:44;6.47;;;5.82;;
33858;SDS011;20156;47.486;12.074;2023-07-09T08:55:14;9.00;;;5.93;;
33858;SDS011;20156;47.486;12.074;2023-07-09T08:57:49;7.30;;;5.95;;
33858;SDS011;20156;47.486;12.074;2023-07-09T09:00:22;6.30;;;5.20;;
33858;SDS011;20156;47.486;12.074;2023-07-09T09:02:55;6.03;;;5.40;;
33858;SDS011;20156;47.486;12.074;2023-07-09T09:05:24;6.47;;;5.50;;
33858;SDS011;20156;47.486;12.074;2023-07-09T09:07:58;6.43;;;5.82;;
33858;SDS011;20156;47.486;12.074;2023-07-09T09:10:39;7.90;;;5.55;;
33858;SDS011;20156;47.486;12.074;2023-07-09T09:13:15;5.97;;;5.38;;
33858;SDS011;20156;47.486;12.074;2023-07-09T09:15:44;7.03;;;6.30;;
33858;SDS011;20156;47.486;12.074;2023-07-09T09:18:17;7.45;;;6.57;;
33858;SDS011;20156;47.486;12.074;2023-07-09T09:20:45;8.30;;;5.78;;
33858;SDS011;20156;47.486;12.074;2023-07-09T09:23:16;7.18;;;5.78;;
33858;SDS011;20156;47.486;12.074;2023-07-09T09:25:45;6.43;;;5.65;;
33858;SDS011;20156;47.486;12.074;2023-07-09T09:28:16;8.75;;;5.50;;
33858;SDS011;20156;47.486;12.074;2023-07-09T09:30:41;6.82;;;5.47;;
33858;SDS011;20156;47.486;12.074;2023-07-09T09:33:08;7.43;;;6.30;;
33858;SDS011;20156;47.486;12.074;2023-07-09T09:35:39;5.60;;;5.07;;
33858;SDS011;20156;47.486;12.074;2023-07-09T09:38:10;6.07;;;5.18;;
33858;SDS011;20156;47.486;12.074;2023-07-09T09:40:38;9.15;;;5.43;;
33858;SDS011;20156;47.486;12.074;2023-07-09T09:43:09;11.30;;;6.35;;
33858;SDS011;20156;47.486;12.074;2023-07-09T09:45:39;6.90;;;5.32;;
33858;SDS011;20156;47.486;12.074;2023-07-09T09:50:55;5.47;;;4.57;;
33858;SDS011;20156;47.486;12.074;2023-07-09T09:53:26;6.03;;;5.22;;
33858;SDS011;20156;47.486;12.074;2023-07-09T09:55:55;6.13;;;5.32;;
33858;SDS011;20156;47.486;12.074;2023-07-09T09:58:25;8.05;;;6.63;;
33858;SDS011;20156;47.486;12.074;2023-07-09T10:00:53;7.47;;;6.03;;
33858;SDS011;20156;47.486;12.074;2023-07-09T10:03:20;5.75;;;4.80;;
33858;SDS011;20156;47.486;12.074;2023-07-09T10:05:53;7.50;;;5.47;;
33858;SDS011;20156;47.486;12.074;2023-07-09T10:08:29;8.60;;;5.55;;
33858;SDS011;20156;47.486;12.074;2023-07-09T10:11:10;8.45;;;5.28;;
33858;SDS011;20156;47.486;12.074;2023-07-09T10:13:44;6.50;;;5.43;;
33858;SDS011;20156;47.486;12.074;2023-07-09T10:16:14;9.18;;;5.40;;
33858;SDS011;20156;47.486;12.074;2023-07-09T10:18:54;8.48;;;5.00;;
33858;SDS011;20156;47.486;12.074;2023-07-09T10:21:47;4.93;;;4.43;;
33858;SDS011;20156;47.486;12.074;2023-07-09T10:35:33;5.20;;;4.05;;
33858;SDS011;20156;47.486;12.074;2023-07-09T10:40:39;6.85;;;4.50;;
33858;SDS011;20156;47.486;12.074;2023-07-09T10:43:19;4.72;;;4.15;;
33858;SDS011;20156;47.486;12.074;2023-07-09T10:46:16;4.50;;;3.95;;
33858;SDS011;20156;47.486;12.074;2023-07-09T10:48:46;6.43;;;4.40;;
33858;SDS011;20156;47.486;12.074;2023-07-09T10:56:38;4.35;;;3.75;;
33858;SDS011;20156;47.486;12.074;2023-07-09T10:59:17;7.03;;;3.95;;
33858;SDS011;20156;47.486;12.074;2023-07-09T11:01:49;6.88;;;3.60;;
33858;SDS011;20156;47.486;12.074;2023-07-09T11:04:25;4.97;;;3.83;;
33858;SDS011;20156;47.486;12.074;2023-07-09T11:06:59;4.55;;;3.63;;
33858;SDS011;20156;47.486;12.074;2023-07-09T11:09:32;4.05;;;3.65;;
33858;SDS011;20156;47.486;12.074;2023-07-09T11:12:04;5.25;;;3.90;;
33858;SDS011;20156;47.486;12.074;2023-07-09T11:14:35;3.85;;;3.42;;
33858;SDS011;20156;47.486;12.074;2023-07-09T11:17:12;5.93;;;3.50;;
33858;SDS011;20156;47.486;12.074;2023-07-09T11:20:06;4.65;;;3.20;;
33858;SDS011;20156;47.486;12.074;2023-07-09T11:22:38;4.30;;;3.63;;
33858;SDS011;20156;47.486;12.074;2023-07-09T11:25:12;4.88;;;3.50;;
33858;SDS011;20156;47.486;12.074;2023-07-09T11:27:49;6.35;;;4.05;;
33858;SDS011;20156;47.486;12.074;2023-07-09T11:30:21;4.53;;;3.90;;
33858;SDS011;20156;47.486;12.074;2023-07-09T11:32:47;4.97;;;3.22;;
33858;SDS011;20156;47.486;12.074;2023-07-09T11:35:23;4.60;;;3.80;;
33858;SDS011;20156;47.486;12.074;2023-07-09T11:37:49;5.07;;;4.25;;
33858;SDS011;20156;47.486;12.074;2023-07-09T11:40:15;7.82;;;5.15;;
33858;SDS011;20156;47.486;12.074;2023-07-09T11:42:56;4.82;;;3.97;;
33858;SDS011;20156;47.486;12.074;2023-07-09T11:45:30;6.15;;;3.70;;
33858;SDS011;20156;47.486;12.074;2023-07-09T11:50:30;4.70;;;3.90;;
33858;SDS011;20156;47.486;12.074;2023-07-09T11:52:58;5.88;;;3.80;;
33858;SDS011;20156;47.486;12.074;2023-07-09T11:55:31;7.13;;;3.78;;
33858;SDS011;20156;47.486;12.074;2023-07-09T11:58:05;5.38;;;3.80;;
33858;SDS011;20156;47.486;12.074;2023-07-09T12:00:33;5.07;;;3.60;;
33858;SDS011;20156;47.486;12.074;2023-07-09T12:03:06;4.85;;;3.70;;
33858;SDS011;20156;47.486;12.074;2023-07-09T12:05:35;7.28;;;3.75;;
33858;SDS011;20156;47.486;12.074;2023-07-09T12:08:02;4.35;;;3.35;;
33858;SDS011;20156;47.486;12.074;2023-07-09T12:10:28;3.85;;;3.38;;
33858;SDS011;20156;47.486;12.074;2023-07-09T12:12:58;7.03;;;4.05;;
33858;SDS011;20156;47.486;12.074;2023-07-09T12:15:25;6.65;;;3.80;;
33858;SDS011;20156;47.486;12.074;2023-07-09T12:17:57;5.22;;;3.70;;
33858;SDS011;20156;47.486;12.074;2023-07-09T12:20:23;4.80;;;3.30;;
33858;SDS011;20156;47.486;12.074;2023-07-09T12:22:48;4.38;;;3.00;;
33858;SDS011;20156;47.486;12.074;2023-07-09T12:25:24;4.40;;;3.08;;
33858;SDS011;20156;47.486;12.074;2023-07-09T12:27:51;4.18;;;3.67;;
33858;SDS011;20156;47.486;12.074;2023-07-09T12:30:18;5.40;;;3.30;;
33858;SDS011;20156;47.486;12.074;2023-07-09T12:32:47;4.80;;;3.08;;
33858;SDS011;20156;47.486;12.074;2023-07-09T12:35:20;4.38;;;3.22;;
33858;SDS011;20156;47.486;12.074;2023-07-09T12:37:47;5.18;;;3.22;;
33858;SDS011;20156;47.486;12.074;2023-07-09T12:40:26;4.03;;;3.20;;
33858;SDS011;20156;47.486;12.074;2023-07-09T12:42:54;5.97;;;3.22;;
33858;SDS011;20156;47.486;12.074;2023-07-09T12:45:22;3.35;;;3.05;;
33858;SDS011;20156;47.486;12.074;2023-07-09T12:47:49;5.00;;;3.22;;
33858;SDS011;20156;47.486;12.074;2023-07-09T12:50:19;6.45;;;3.10;;
33858;SDS011;20156;47.486;12.074;2023-07-09T12:52:52;4.35;;;3.45;;
33858;SDS011;20156;47.486;12.074;2023-07-09T12:55:22;3.78;;;3.15;;
33858;SDS011;20156;47.486;12.074;2023-07-09T12:57:50;5.90;;;3.30;;
33858;SDS011;20156;47.486;12.074;2023-07-09T13:00:31;5.03;;;3.20;;
33858;SDS011;20156;47.486;12.074;2023-07-09T13:02:57;4.15;;;3.15;;
33858;SDS011;20156;47.486;12.074;2023-07-09T13:05:24;3.15;;;2.80;;
33858;SDS011;20156;47.486;12.074;2023-07-09T13:07:54;3.90;;;3.03;;
33858;SDS011;20156;47.486;12.074;2023-07-09T13:10:29;4.53;;;3.28;;
33858;SDS011;20156;47.486;12.074;2023-07-09T13:12:59;4.10;;;3.70;;
33858;SDS011;20156;47.486;12.074;2023-07-09T13:15:29;3.38;;;3.08;;
33858;SDS011;20156;47.486;12.074;2023-07-09T13:17:56;5.55;;;3.33;;
33858;SDS011;20156;47.486;12.074;2023-07-09T13:20:28;3.67;;;3.30;;
33858;SDS011;20156;47.486;12.074;2023-07-09T13:22:55;3.92;;;3.08;;
33858;SDS011;20156;47.486;12.074;2023-07-09T13:25:20;3.80;;;3.05;;
33858;SDS011;20156;47.486;12.074;2023-07-09T13:27:46;5.95;;;3.40;;
33858;SDS011;20156;47.486;12.074;2023-07-09T13:30:11;3.15;;;2.85;;
33858;SDS011;20156;47.486;12.074;2023-07-09T13:32:37;4.22;;;2.95;;
33858;SDS011;20156;47.486;12.074;2023-07-09T13:35:03;3.85;;;3.17;;
33858;SDS011;20156;47.486;12.074;2023-07-09T13:37:37;4.45;;;3.28;;
33858;SDS011;20156;47.486;12.074;2023-07-09T13:40:02;3.90;;;3.35;;
33858;SDS011;20156;47.486;12.074;2023-07-09T13:42:28;4.07;;;3.38;;
33858;SDS011;20156;47.486;12.074;2023-07-09T13:44:54;7.60;;;3.50;;
33858;SDS011;20156;47.486;12.074;2023-07-09T13:47:20;5.50;;;3.10;;
33858;SDS011;20156;47.486;12.074;2023-07-09T13:49:46;4.80;;;3.25;;
33858;SDS011;20156;47.486;12.074;2023-07-09T13:52:18;5.20;;;3.40;;
33858;SDS011;20156;47.486;12.074;2023-07-09T13:54:46;4.85;;;3.03;;
33858;SDS011;20156;47.486;12.074;2023-07-09T13:57:19;6.63;;;3.50;;
33858;SDS011;20156;47.486;12.074;2023-07-09T13:59:46;4.28;;;3.60;;
33858;SDS011;20156;47.486;12.074;2023-07-09T14:04:51;3.28;;;2.97;;
33858;SDS011;20156;47.486;12.074;2023-07-09T14:07:31;3.28;;;2.97;;
33858;SDS011;20156;47.486;12.074;2023-07-09T14:09:58;6.03;;;3.38;;
33858;SDS011;20156;47.486;12.074;2023-07-09T14:12:24;6.07;;;3.35;;
33858;SDS011;20156;47.486;12.074;2023-07-09T14:14:51;4.80;;;2.78;;
33858;SDS011;20156;47.486;12.074;2023-07-09T14:17:18;4.00;;;3.20;;
33858;SDS011;20156;47.486;12.074;2023-07-09T14:19:44;3.72;;;2.90;;
33858;SDS011;20156;47.486;12.074;2023-07-09T14:25:04;5.65;;;3.75;;
33858;SDS011;20156;47.486;12.074;2023-07-09T14:27:31;4.40;;;3.00;;
33858;SDS011;20156;47.486;12.074;2023-07-09T14:29:56;5.43;;;3.22;;
33858;SDS011;20156;47.486;12.074;2023-07-09T14:32:37;5.45;;;3.10;;
33858;SDS011;20156;47.486;12.074;2023-07-09T14:35:37;5.68;;;3.55;;
33858;SDS011;20156;47.486;12.074;2023-07-09T14:37:55;5.18;;;3.28;;
33858;SDS011;20156;47.486;12.074;2023-07-09T14:40:24;5.25;;;3.67;;
33858;SDS011;20156;47.486;12.074;2023-07-09T14:42:50;5.25;;;3.35;;
33858;SDS011;20156;47.486;12.074;2023-07-09T14:45:20;6.28;;;3.65;;
33858;SDS011;20156;47.486;12.074;2023-07-09T14:47:48;5.47;;;3.50;;
33858;SDS011;20156;47.486;12.074;2023-07-09T14:50:14;5.15;;;3.63;;
33858;SDS011;20156;47.486;12.074;2023-07-09T14:52:40;5.22;;;3.70;;
33858;SDS011;20156;47.486;12.074;2023-07-09T14:55:17;4.65;;;3.33;;
33858;SDS011;20156;47.486;12.074;2023-07-09T14:57:45;4.07;;;3.63;;
33858;SDS011;20156;47.486;12.074;2023-07-09T15:00:12;6.13;;;3.75;;
33858;SDS011;20156;47.486;12.074;2023-07-09T15:02:41;5.60;;;3.72;;
33858;SDS011;20156;47.486;12.074;2023-07-09T15:05:15;4.53;;;3.50;;
33858;SDS011;20156;47.486;12.074;2023-07-09T15:07:46;4.25;;;3.85;;
33858;SDS011;20156;47.486;12.074;2023-07-09T15:10:17;3.83;;;3.40;;
33858;SDS011;20156;47.486;12.074;2023-07-09T15:12:47;5.63;;;3.70;;
33858;SDS011;20156;47.486;12.074;2023-07-09T15:17:41;4.57;;;3.50;;
33858;SDS011;20156;47.486;12.074;2023-07-09T15:20:14;3.55;;;3.25;;
33858;SDS011;20156;47.486;12.074;2023-07-09T15:22:41;4.60;;;3.40;;